sensor_id;sensor_type;location;lat;lon;timestamp;P1;durP1;ratioP1;P2;durP2;ratioP2
53411;SDS011;39307;52.870;13.660;2024-01-25T00:00:33;17.30;;;5.90;;
53411;SDS011;39307;52.870;13.660;2024-01-25T00:03:00;16.77;;;5.53;;
53411;SDS011;39307;52.870;13.660;2024-01-25T00:05:26;18.33;;;5.60;;
53411;SDS011;39307;52.870;13.660;2024-01-25T00:07:53;17.88;;;5.88;;
53411;SDS011;39307;52.870;13.660;2024-01-25T00:10:20;16.13;;;5.82;;
53411;SDS011;39307;52.870;13.660;2024-01-25T00:12:47;17.17;;;5.45;;
53411;SDS011;39307;52.870;13.660;2024-01-25T00:15:14;18.35;;;5.70;;
53411;SDS011;39307;52.870;13.660;2024-01-25T00:17:41;17.67;;;5.53;;
53411;SDS011;39307;52.870;13.660;2024-01-25T00:20:09;16.33;;;5.70;;
53411;SDS011;39307;52.870;13.660;2024-01-25T00:22:36;17.70;;;5.72;;
53411;SDS011;39307;52.870;13.660;2024-01-25T00:25:03;16.15;;;5.68;;
53411;SDS011;39307;52.870;13.660;2024-01-25T00:27:31;17.90;;;5.93;;
53411;SDS011;39307;52.870;13.660;2024-01-25T00:29:57;16.50;;;5.47;;
53411;SDS011;39307;52.870;13.660;2024-01-25T00:32:24;16.65;;;5.30;;
53411;SDS011;39307;52.870;13.660;2024-01-25T00:34:51;17.77;;;5.88;;
53411;SDS011;39307;52.870;13.660;2024-01-25T00:37:18;19.17;;;5.80;;
53411;SDS011;39307;52.870;13.660;2024-01-25T00:39:46;17.60;;;5.45;;
53411;SDS011;39307;52.870;13.660;2024-01-25T00:42:13;16.25;;;5.63;;
53411;SDS011;39307;52.870;13.660;2024-01-25T00:44:40;16.20;;;5.68;;
53411;SDS011;39307;52.870;13.660;2024-01-25T00:47:07;17.80;;;5.50;;
53411;SDS011;39307;52.870;13.660;2024-01-25T00:49:35;18.05;;;5.88;;
53411;SDS011;39307;52.870;13.660;2024-01-25T00:52:02;19.73;;;5.73;;
53411;SDS011;39307;52.870;13.660;2024-01-25T00:54:29;19.13;;;5.97;;
53411;SDS011;39307;52.870;13.660;2024-01-25T00:56:57;17.70;;;5.57;;
53411;SDS011;39307;52.870;13.660;2024-01-25T00:59:24;16.58;;;5.65;;
53411;SDS011;39307;52.870;13.660;2024-01-25T01:01:52;15.70;;;5.22;;
53411;SDS011;39307;52.870;13.660;2024-01-25T01:04:21;18.65;;;6.32;;
53411;SDS011;39307;52.870;13.660;2024-01-25T01:06:48;18.25;;;5.57;;
53411;SDS011;39307;52.870;13.660;2024-01-25T01:09:15;14.30;;;5.20;;
53411;SDS011;39307;52.870;13.660;2024-01-25T01:11:42;17.13;;;6.38;;
53411;SDS011;39307;52.870;13.660;2024-01-25T01:14:09;15.47;;;5.20;;
53411;SDS011;39307;52.870;13.660;2024-01-25T01:16:36;17.63;;;5.68;;
53411;SDS011;39307;52.870;13.660;2024-01-25T01:19:03;17.25;;;5.47;;
53411;SDS011;39307;52.870;13.660;2024-01-25T01:21:29;20.38;;;5.90;;
53411;SDS011;39307;52.870;13.660;2024-01-25T01:23:56;16.67;;;5.50;;
53411;SDS011;39307;52.870;13.660;2024-01-25T01:26:23;18.08;;;5.40;;
53411;SDS011;39307;52.870;13.660;2024-01-25T01:28:50;17.08;;;6.05;;
53411;SDS011;39307;52.870;13.660;2024-01-25T01:31:16;16.15;;;5.30;;
53411;SDS011;39307;52.870;13.660;2024-01-25T01:33:43;16.92;;;5.72;;
53411;SDS011;39307;52.870;13.660;2024-01-25T01:36:10;16.33;;;5.63;;
53411;SDS011;39307;52.870;13.660;2024-01-25T01:38:37;18.40;;;5.82;;
53411;SDS011;39307;52.870;13.660;2024-01-25T01:41:04;17.08;;;6.03;;
53411;SDS011;39307;52.870;13.660;2024-01-25T01:43:31;14.43;;;5.20;;
53411;SDS011;39307;52.870;13.660;2024-01-25T01:46:06;17.15;;;5.72;;
53411;SDS011;39307;52.870;13.660;2024-01-25T01:48:59;17.75;;;5.65;;
53411;SDS011;39307;52.870;13.660;2024-01-25T01:51:26;17.33;;;6.00;;
53411;SDS011;39307;52.870;13.660;2024-01-25T01:53:55;17.30;;;5.53;;
53411;SDS011;39307;52.870;13.660;2024-01-25T01:56:26;19.80;;;5.60;;
53411;SDS011;39307;52.870;13.660;2024-01-25T01:58:57;16.58;;;5.65;;
53411;SDS011;39307;52.870;13.660;2024-01-25T02:01:33;15.97;;;5.20;;
53411;SDS011;39307;52.870;13.660;2024-01-25T02:04:00;16.40;;;5.38;;
53411;SDS011;39307;52.870;13.660;2024-01-25T02:06:26;17.33;;;5.70;;
53411;SDS011;39307;52.870;13.660;2024-01-25T02:08:54;18.92;;;5.88;;
53411;SDS011;39307;52.870;13.660;2024-01-25T02:11:20;16.52;;;5.57;;
53411;SDS011;39307;52.870;13.660;2024-01-25T02:13:47;18.98;;;5.70;;
53411;SDS011;39307;52.870;13.660;2024-01-25T02:16:14;15.20;;;5.57;;
53411;SDS011;39307;52.870;13.660;2024-01-25T02:18:41;16.63;;;5.30;;
53411;SDS011;39307;52.870;13.660;2024-01-25T02:21:08;18.85;;;5.65;;
53411;SDS011;39307;52.870;13.660;2024-01-25T02:23:35;19.17;;;5.88;;
53411;SDS011;39307;52.870;13.660;2024-01-25T02:26:02;18.38;;;5.57;;
53411;SDS011;39307;52.870;13.660;2024-01-25T02:28:29;19.33;;;6.10;;
53411;SDS011;39307;52.870;13.660;2024-01-25T02:30:55;19.20;;;5.93;;
53411;SDS011;39307;52.870;13.660;2024-01-25T02:33:24;18.10;;;5.72;;
53411;SDS011;39307;52.870;13.660;2024-01-25T02:35:51;17.58;;;5.57;;
53411;SDS011;39307;52.870;13.660;2024-01-25T02:38:18;17.48;;;5.68;;
53411;SDS011;39307;52.870;13.660;2024-01-25T02:40:45;17.02;;;5.68;;
53411;SDS011;39307;52.870;13.660;2024-01-25T02:43:12;16.33;;;5.30;;
53411;SDS011;39307;52.870;13.660;2024-01-25T02:45:38;16.20;;;5.15;;
53411;SDS011;39307;52.870;13.660;2024-01-25T02:48:05;18.50;;;5.75;;
53411;SDS011;39307;52.870;13.660;2024-01-25T02:50:32;15.93;;;5.47;;
53411;SDS011;39307;52.870;13.660;2024-01-25T02:52:59;19.02;;;5.80;;
53411;SDS011;39307;52.870;13.660;2024-01-25T02:55:26;18.17;;;5.80;;
53411;SDS011;39307;52.870;13.660;2024-01-25T02:57:53;17.50;;;5.50;;
53411;SDS011;39307;52.870;13.660;2024-01-25T03:00:20;16.08;;;5.63;;
53411;SDS011;39307;52.870;13.660;2024-01-25T03:02:47;16.20;;;5.10;;
53411;SDS011;39307;52.870;13.660;2024-01-25T03:05:13;17.07;;;5.53;;
53411;SDS011;39307;52.870;13.660;2024-01-25T03:07:40;18.23;;;5.75;;
53411;SDS011;39307;52.870;13.660;2024-01-25T03:10:07;16.15;;;5.40;;
53411;SDS011;39307;52.870;13.660;2024-01-25T03:12:34;16.42;;;5.40;;
53411;SDS011;39307;52.870;13.660;2024-01-25T03:15:01;17.77;;;5.53;;
53411;SDS011;39307;52.870;13.660;2024-01-25T03:17:28;17.77;;;5.93;;
53411;SDS011;39307;52.870;13.660;2024-01-25T03:19:55;17.00;;;5.78;;
53411;SDS011;39307;52.870;13.660;2024-01-25T03:22:22;16.03;;;4.90;;
53411;SDS011;39307;52.870;13.660;2024-01-25T03:24:49;17.67;;;5.68;;
53411;SDS011;39307;52.870;13.660;2024-01-25T03:27:15;16.13;;;5.63;;
53411;SDS011;39307;52.870;13.660;2024-01-25T03:29:42;18.05;;;5.65;;
53411;SDS011;39307;52.870;13.660;2024-01-25T03:32:10;15.07;;;5.30;;
53411;SDS011;39307;52.870;13.660;2024-01-25T03:34:37;16.90;;;5.77;;
53411;SDS011;39307;52.870;13.660;2024-01-25T03:37:04;15.35;;;5.35;;
53411;SDS011;39307;52.870;13.660;2024-01-25T03:39:31;17.90;;;5.50;;
53411;SDS011;39307;52.870;13.660;2024-01-25T03:41:58;19.60;;;6.13;;
53411;SDS011;39307;52.870;13.660;2024-01-25T03:44:25;16.77;;;5.60;;
53411;SDS011;39307;52.870;13.660;2024-01-25T03:46:52;17.75;;;5.90;;
53411;SDS011;39307;52.870;13.660;2024-01-25T03:49:19;16.75;;;5.30;;
53411;SDS011;39307;52.870;13.660;2024-01-25T03:51:45;17.27;;;5.30;;
53411;SDS011;39307;52.870;13.660;2024-01-25T03:54:12;18.10;;;5.88;;
53411;SDS011;39307;52.870;13.660;2024-01-25T03:56:39;18.77;;;5.75;;
53411;SDS011;39307;52.870;13.660;2024-01-25T03:59:06;17.73;;;5.80;;
53411;SDS011;39307;52.870;13.660;2024-01-25T04:01:33;16.55;;;5.50;;
53411;SDS011;39307;52.870;13.660;2024-01-25T04:03:59;15.43;;;5.47;;
53411;SDS011;39307;52.870;13.660;2024-01-25T04:06:26;17.40;;;5.38;;
53411;SDS011;39307;52.870;13.660;2024-01-25T04:08:53;16.85;;;5.47;;
53411;SDS011;39307;52.870;13.660;2024-01-25T04:11:20;17.27;;;5.60;;
53411;SDS011;39307;52.870;13.660;2024-01-25T04:13:47;18.55;;;5.82;;
53411;SDS011;39307;52.870;13.660;2024-01-25T04:16:14;17.10;;;5.77;;
53411;SDS011;39307;52.870;13.660;2024-01-25T04:18:41;19.25;;;5.53;;
53411;SDS011;39307;52.870;13.660;2024-01-25T04:21:08;14.82;;;5.13;;
53411;SDS011;39307;52.870;13.660;2024-01-25T04:23:35;15.30;;;5.40;;
53411;SDS011;39307;52.870;13.660;2024-01-25T04:26:02;16.45;;;5.90;;
53411;SDS011;39307;52.870;13.660;2024-01-25T04:28:28;19.67;;;5.55;;
53411;SDS011;39307;52.870;13.660;2024-01-25T04:30:55;14.52;;;4.78;;
53411;SDS011;39307;52.870;13.660;2024-01-25T04:33:22;16.70;;;5.28;;
53411;SDS011;39307;52.870;13.660;2024-01-25T04:35:49;18.05;;;6.20;;
53411;SDS011;39307;52.870;13.660;2024-01-25T04:38:16;15.80;;;5.53;;
53411;SDS011;39307;52.870;13.660;2024-01-25T04:40:43;17.10;;;5.20;;
53411;SDS011;39307;52.870;13.660;2024-01-25T04:43:10;16.73;;;5.70;;
53411;SDS011;39307;52.870;13.660;2024-01-25T04:45:36;17.27;;;5.70;;
53411;SDS011;39307;52.870;13.660;2024-01-25T04:48:03;16.25;;;5.38;;
53411;SDS011;39307;52.870;13.660;2024-01-25T04:50:31;17.40;;;5.32;;
53411;SDS011;39307;52.870;13.660;2024-01-25T04:52:58;17.08;;;5.63;;
53411;SDS011;39307;52.870;13.660;2024-01-25T04:55:28;15.40;;;5.10;;
53411;SDS011;39307;52.870;13.660;2024-01-25T04:57:55;18.93;;;5.73;;
53411;SDS011;39307;52.870;13.660;2024-01-25T05:00:22;16.27;;;5.43;;
53411;SDS011;39307;52.870;13.660;2024-01-25T05:02:49;18.25;;;5.82;;
53411;SDS011;39307;52.870;13.660;2024-01-25T05:05:15;19.77;;;5.80;;
53411;SDS011;39307;52.870;13.660;2024-01-25T05:07:42;17.60;;;5.47;;
53411;SDS011;39307;52.870;13.660;2024-01-25T05:10:09;17.52;;;5.85;;
53411;SDS011;39307;52.870;13.660;2024-01-25T05:12:36;18.88;;;5.85;;
53411;SDS011;39307;52.870;13.660;2024-01-25T05:15:03;17.65;;;5.60;;
53411;SDS011;39307;52.870;13.660;2024-01-25T05:17:30;16.52;;;5.78;;
53411;SDS011;39307;52.870;13.660;2024-01-25T05:19:57;20.60;;;5.63;;
53411;SDS011;39307;52.870;13.660;2024-01-25T05:22:24;17.80;;;5.55;;
53411;SDS011;39307;52.870;13.660;2024-01-25T05:24:51;17.05;;;5.53;;
53411;SDS011;39307;52.870;13.660;2024-01-25T05:27:17;19.65;;;5.88;;
53411;SDS011;39307;52.870;13.660;2024-01-25T05:29:44;16.90;;;5.20;;
53411;SDS011;39307;52.870;13.660;2024-01-25T05:32:11;16.58;;;5.43;;
53411;SDS011;39307;52.870;13.660;2024-01-25T05:34:37;19.70;;;5.85;;
53411;SDS011;39307;52.870;13.660;2024-01-25T05:37:04;19.45;;;6.07;;
53411;SDS011;39307;52.870;13.660;2024-01-25T05:39:32;19.23;;;6.03;;
53411;SDS011;39307;52.870;13.660;2024-01-25T05:41:59;18.92;;;5.55;;
53411;SDS011;39307;52.870;13.660;2024-01-25T05:44:26;17.88;;;5.40;;
53411;SDS011;39307;52.870;13.660;2024-01-25T05:46:53;17.45;;;5.28;;
53411;SDS011;39307;52.870;13.660;2024-01-25T05:49:20;17.77;;;5.63;;
53411;SDS011;39307;52.870;13.660;2024-01-25T05:51:47;16.07;;;5.67;;
53411;SDS011;39307;52.870;13.660;2024-01-25T05:54:13;15.73;;;5.22;;
53411;SDS011;39307;52.870;13.660;2024-01-25T05:56:40;15.27;;;5.13;;
53411;SDS011;39307;52.870;13.660;2024-01-25T05:59:07;16.63;;;5.25;;
53411;SDS011;39307;52.870;13.660;2024-01-25T06:01:34;17.33;;;5.43;;
53411;SDS011;39307;52.870;13.660;2024-01-25T06:04:01;15.90;;;5.38;;
53411;SDS011;39307;52.870;13.660;2024-01-25T06:06:27;15.77;;;5.17;;
53411;SDS011;39307;52.870;13.660;2024-01-25T06:08:54;16.33;;;5.40;;
53411;SDS011;39307;52.870;13.660;2024-01-25T06:11:21;18.50;;;5.83;;
53411;SDS011;39307;52.870;13.660;2024-01-25T06:13:48;16.33;;;5.57;;
53411;SDS011;39307;52.870;13.660;2024-01-25T06:16:14;16.58;;;5.22;;
53411;SDS011;39307;52.870;13.660;2024-01-25T06:18:41;18.00;;;5.72;;
53411;SDS011;39307;52.870;13.660;2024-01-25T06:21:08;16.77;;;5.30;;
53411;SDS011;39307;52.870;13.660;2024-01-25T06:23:35;17.15;;;5.18;;
53411;SDS011;39307;52.870;13.660;2024-01-25T06:26:02;15.38;;;5.35;;
53411;SDS011;39307;52.870;13.660;2024-01-25T06:28:29;19.95;;;5.60;;
53411;SDS011;39307;52.870;13.660;2024-01-25T06:30:56;18.27;;;5.65;;
53411;SDS011;39307;52.870;13.660;2024-01-25T06:33:23;16.05;;;5.30;;
53411;SDS011;39307;52.870;13.660;2024-01-25T06:35:50;19.08;;;5.85;;
53411;SDS011;39307;52.870;13.660;2024-01-25T06:38:17;18.80;;;5.55;;
53411;SDS011;39307;52.870;13.660;2024-01-25T06:40:43;17.67;;;5.53;;
53411;SDS011;39307;52.870;13.660;2024-01-25T06:43:10;19.73;;;5.82;;
53411;SDS011;39307;52.870;13.660;2024-01-25T06:45:37;16.67;;;5.07;;
53411;SDS011;39307;52.870;13.660;2024-01-25T06:48:04;16.65;;;5.45;;
53411;SDS011;39307;52.870;13.660;2024-01-25T06:50:32;18.42;;;5.65;;
53411;SDS011;39307;52.870;13.660;2024-01-25T06:52:59;15.43;;;5.07;;
53411;SDS011;39307;52.870;13.660;2024-01-25T06:55:26;15.87;;;5.20;;
53411;SDS011;39307;52.870;13.660;2024-01-25T06:57:52;17.30;;;5.57;;
53411;SDS011;39307;52.870;13.660;2024-01-25T07:00:19;18.48;;;5.20;;
53411;SDS011;39307;52.870;13.660;2024-01-25T07:02:46;17.20;;;5.57;;
53411;SDS011;39307;52.870;13.660;2024-01-25T07:05:13;17.48;;;5.45;;
53411;SDS011;39307;52.870;13.660;2024-01-25T07:07:40;16.85;;;5.10;;
53411;SDS011;39307;52.870;13.660;2024-01-25T07:10:07;15.93;;;5.05;;
53411;SDS011;39307;52.870;13.660;2024-01-25T07:12:34;16.55;;;5.25;;
53411;SDS011;39307;52.870;13.660;2024-01-25T07:15:01;16.08;;;5.63;;
53411;SDS011;39307;52.870;13.660;2024-01-25T07:17:32;16.73;;;5.37;;
53411;SDS011;39307;52.870;13.660;2024-01-25T07:19:59;17.00;;;5.70;;
53411;SDS011;39307;52.870;13.660;2024-01-25T07:22:25;14.93;;;4.90;;
53411;SDS011;39307;52.870;13.660;2024-01-25T07:24:52;14.40;;;5.20;;
53411;SDS011;39307;52.870;13.660;2024-01-25T07:27:19;17.35;;;5.43;;
53411;SDS011;39307;52.870;13.660;2024-01-25T07:29:46;18.23;;;5.50;;
53411;SDS011;39307;52.870;13.660;2024-01-25T07:32:13;16.40;;;4.88;;
53411;SDS011;39307;52.870;13.660;2024-01-25T07:34:40;19.95;;;5.53;;
53411;SDS011;39307;52.870;13.660;2024-01-25T07:37:06;15.80;;;5.18;;
53411;SDS011;39307;52.870;13.660;2024-01-25T07:39:34;17.33;;;5.35;;
53411;SDS011;39307;52.870;13.660;2024-01-25T07:42:01;17.85;;;5.00;;
53411;SDS011;39307;52.870;13.660;2024-01-25T07:44:28;14.70;;;5.00;;
53411;SDS011;39307;52.870;13.660;2024-01-25T07:46:54;15.73;;;4.70;;
53411;SDS011;39307;52.870;13.660;2024-01-25T07:49:22;14.98;;;5.18;;
53411;SDS011;39307;52.870;13.660;2024-01-25T07:51:50;17.30;;;5.32;;
53411;SDS011;39307;52.870;13.660;2024-01-25T07:54:17;14.80;;;4.55;;
53411;SDS011;39307;52.870;13.660;2024-01-25T07:56:43;15.43;;;5.53;;
53411;SDS011;39307;52.870;13.660;2024-01-25T07:59:10;16.10;;;4.97;;
53411;SDS011;39307;52.870;13.660;2024-01-25T08:01:37;14.73;;;4.68;;
53411;SDS011;39307;52.870;13.660;2024-01-25T08:04:04;14.70;;;4.83;;
53411;SDS011;39307;52.870;13.660;2024-01-25T08:06:31;17.10;;;5.55;;
53411;SDS011;39307;52.870;13.660;2024-01-25T08:08:57;13.40;;;4.70;;
53411;SDS011;39307;52.870;13.660;2024-01-25T08:11:24;14.87;;;4.73;;
53411;SDS011;39307;52.870;13.660;2024-01-25T08:13:51;16.90;;;4.93;;
53411;SDS011;39307;52.870;13.660;2024-01-25T08:16:18;16.92;;;5.60;;
53411;SDS011;39307;52.870;13.660;2024-01-25T08:18:48;15.48;;;5.22;;
53411;SDS011;39307;52.870;13.660;2024-01-25T08:21:15;12.82;;;4.38;;
53411;SDS011;39307;52.870;13.660;2024-01-25T08:23:42;14.23;;;4.63;;
53411;SDS011;39307;52.870;13.660;2024-01-25T08:26:09;14.77;;;4.93;;
53411;SDS011;39307;52.870;13.660;2024-01-25T08:28:35;15.50;;;4.87;;
53411;SDS011;39307;52.870;13.660;2024-01-25T08:31:04;17.25;;;5.18;;
53411;SDS011;39307;52.870;13.660;2024-01-25T08:33:32;14.15;;;4.80;;
53411;SDS011;39307;52.870;13.660;2024-01-25T08:35:58;12.93;;;4.20;;
53411;SDS011;39307;52.870;13.660;2024-01-25T08:38:25;16.25;;;5.00;;
53411;SDS011;39307;52.870;13.660;2024-01-25T08:40:52;16.47;;;5.40;;
53411;SDS011;39307;52.870;13.660;2024-01-25T08:43:19;15.68;;;5.13;;
53411;SDS011;39307;52.870;13.660;2024-01-25T08:45:46;16.98;;;5.22;;
53411;SDS011;39307;52.870;13.660;2024-01-25T08:48:12;15.38;;;4.65;;
53411;SDS011;39307;52.870;13.660;2024-01-25T08:50:39;13.93;;;4.93;;
53411;SDS011;39307;52.870;13.660;2024-01-25T08:53:05;13.85;;;4.63;;
53411;SDS011;39307;52.870;13.660;2024-01-25T08:55:32;16.95;;;4.53;;
53411;SDS011;39307;52.870;13.660;2024-01-25T08:57:59;13.88;;;4.60;;
53411;SDS011;39307;52.870;13.660;2024-01-25T09:00:26;14.15;;;4.78;;
53411;SDS011;39307;52.870;13.660;2024-01-25T09:02:53;12.32;;;4.60;;
53411;SDS011;39307;52.870;13.660;2024-01-25T09:05:20;13.33;;;4.83;;
53411;SDS011;39307;52.870;13.660;2024-01-25T09:07:46;16.65;;;5.00;;
53411;SDS011;39307;52.870;13.660;2024-01-25T09:10:13;14.32;;;4.80;;
53411;SDS011;39307;52.870;13.660;2024-01-25T09:12:40;15.40;;;4.70;;
53411;SDS011;39307;52.870;13.660;2024-01-25T09:15:07;13.43;;;4.25;;
53411;SDS011;39307;52.870;13.660;2024-01-25T09:17:34;15.20;;;5.18;;
53411;SDS011;39307;52.870;13.660;2024-01-25T09:20:02;12.90;;;4.38;;
53411;SDS011;39307;52.870;13.660;2024-01-25T09:22:30;13.77;;;4.30;;
53411;SDS011;39307;52.870;13.660;2024-01-25T09:24:56;14.60;;;4.55;;
53411;SDS011;39307;52.870;13.660;2024-01-25T09:27:23;14.73;;;4.53;;
53411;SDS011;39307;52.870;13.660;2024-01-25T09:29:50;14.57;;;4.65;;
53411;SDS011;39307;52.870;13.660;2024-01-25T09:32:17;14.77;;;4.63;;
53411;SDS011;39307;52.870;13.660;2024-01-25T09:34:43;16.67;;;4.50;;
53411;SDS011;39307;52.870;13.660;2024-01-25T09:37:10;13.68;;;4.50;;
53411;SDS011;39307;52.870;13.660;2024-01-25T09:39:37;13.23;;;4.72;;
53411;SDS011;39307;52.870;13.660;2024-01-25T09:42:04;14.50;;;4.57;;
53411;SDS011;39307;52.870;13.660;2024-01-25T09:44:31;14.47;;;4.70;;
53411;SDS011;39307;52.870;13.660;2024-01-25T09:46:58;14.48;;;4.68;;
53411;SDS011;39307;52.870;13.660;2024-01-25T09:49:28;14.65;;;4.60;;
53411;SDS011;39307;52.870;13.660;2024-01-25T09:51:55;14.60;;;4.72;;
53411;SDS011;39307;52.870;13.660;2024-01-25T09:54:23;13.20;;;4.32;;
53411;SDS011;39307;52.870;13.660;2024-01-25T09:56:52;14.15;;;4.53;;
53411;SDS011;39307;52.870;13.660;2024-01-25T09:59:21;13.50;;;4.47;;
53411;SDS011;39307;52.870;13.660;2024-01-25T10:01:48;15.67;;;4.63;;
53411;SDS011;39307;52.870;13.660;2024-01-25T10:04:15;13.05;;;4.50;;
53411;SDS011;39307;52.870;13.660;2024-01-25T10:06:42;13.65;;;4.55;;
53411;SDS011;39307;52.870;13.660;2024-01-25T10:09:09;12.83;;;4.17;;
53411;SDS011;39307;52.870;13.660;2024-01-25T10:11:35;13.38;;;4.60;;
53411;SDS011;39307;52.870;13.660;2024-01-25T10:14:02;13.23;;;4.20;;
53411;SDS011;39307;52.870;13.660;2024-01-25T10:16:29;13.88;;;4.32;;
53411;SDS011;39307;52.870;13.660;2024-01-25T10:18:56;12.90;;;4.40;;
53411;SDS011;39307;52.870;13.660;2024-01-25T10:21:24;12.60;;;3.90;;
53411;SDS011;39307;52.870;13.660;2024-01-25T10:23:51;11.68;;;4.22;;
53411;SDS011;39307;52.870;13.660;2024-01-25T10:26:17;13.07;;;4.45;;
53411;SDS011;39307;52.870;13.660;2024-01-25T10:28:54;15.65;;;4.68;;
53411;SDS011;39307;52.870;13.660;2024-01-25T10:31:24;12.40;;;4.32;;
53411;SDS011;39307;52.870;13.660;2024-01-25T10:33:54;13.15;;;4.97;;
53411;SDS011;39307;52.870;13.660;2024-01-25T10:36:21;12.70;;;3.95;;
53411;SDS011;39307;52.870;13.660;2024-01-25T10:38:48;12.60;;;4.18;;
53411;SDS011;39307;52.870;13.660;2024-01-25T10:41:15;13.13;;;4.15;;
53411;SDS011;39307;52.870;13.660;2024-01-25T10:43:42;13.82;;;4.38;;
53411;SDS011;39307;52.870;13.660;2024-01-25T10:46:09;12.18;;;4.10;;
53411;SDS011;39307;52.870;13.660;2024-01-25T10:48:37;15.73;;;4.45;;
53411;SDS011;39307;52.870;13.660;2024-01-25T10:51:05;14.00;;;4.45;;
53411;SDS011;39307;52.870;13.660;2024-01-25T10:53:33;14.43;;;4.88;;
53411;SDS011;39307;52.870;13.660;2024-01-25T10:56:01;13.40;;;4.30;;
53411;SDS011;39307;52.870;13.660;2024-01-25T10:58:32;12.30;;;3.97;;
53411;SDS011;39307;52.870;13.660;2024-01-25T11:00:59;14.85;;;4.30;;
53411;SDS011;39307;52.870;13.660;2024-01-25T11:03:27;13.63;;;4.72;;
53411;SDS011;39307;52.870;13.660;2024-01-25T11:05:55;13.27;;;4.30;;
53411;SDS011;39307;52.870;13.660;2024-01-25T11:08:36;12.88;;;4.47;;
53411;SDS011;39307;52.870;13.660;2024-01-25T11:11:05;12.55;;;4.15;;
53411;SDS011;39307;52.870;13.660;2024-01-25T11:13:33;14.45;;;4.25;;
53411;SDS011;39307;52.870;13.660;2024-01-25T11:16:11;14.25;;;4.38;;
53411;SDS011;39307;52.870;13.660;2024-01-25T11:18:51;12.43;;;4.18;;
53411;SDS011;39307;52.870;13.660;2024-01-25T11:24:17;12.27;;;3.88;;
53411;SDS011;39307;52.870;13.660;2024-01-25T11:26:50;13.45;;;4.38;;
53411;SDS011;39307;52.870;13.660;2024-01-25T11:29:19;12.23;;;4.05;;
53411;SDS011;39307;52.870;13.660;2024-01-25T11:31:48;11.85;;;4.03;;
53411;SDS011;39307;52.870;13.660;2024-01-25T11:34:16;12.48;;;3.92;;
53411;SDS011;39307;52.870;13.660;2024-01-25T11:36:43;13.68;;;4.18;;
53411;SDS011;39307;52.870;13.660;2024-01-25T11:39:11;12.43;;;4.10;;
53411;SDS011;39307;52.870;13.660;2024-01-25T11:41:40;11.23;;;3.72;;
53411;SDS011;39307;52.870;13.660;2024-01-25T11:44:09;14.02;;;4.38;;
53411;SDS011;39307;52.870;13.660;2024-01-25T11:46:36;11.57;;;3.80;;
53411;SDS011;39307;52.870;13.660;2024-01-25T11:49:03;14.32;;;4.15;;
53411;SDS011;39307;52.870;13.660;2024-01-25T11:51:30;11.25;;;3.90;;
53411;SDS011;39307;52.870;13.660;2024-01-25T11:53:57;13.77;;;4.00;;
53411;SDS011;39307;52.870;13.660;2024-01-25T11:56:28;13.77;;;4.47;;
53411;SDS011;39307;52.870;13.660;2024-01-25T11:59:06;11.50;;;3.85;;
53411;SDS011;39307;52.870;13.660;2024-01-25T12:01:35;13.25;;;4.00;;
53411;SDS011;39307;52.870;13.660;2024-01-25T12:04:02;11.88;;;3.75;;
53411;SDS011;39307;52.870;13.660;2024-01-25T12:06:30;12.40;;;4.15;;
53411;SDS011;39307;52.870;13.660;2024-01-25T12:09:05;12.63;;;3.65;;
53411;SDS011;39307;52.870;13.660;2024-01-25T12:11:36;12.57;;;3.65;;
53411;SDS011;39307;52.870;13.660;2024-01-25T12:14:04;13.23;;;4.10;;
53411;SDS011;39307;52.870;13.660;2024-01-25T12:16:33;12.40;;;4.38;;
53411;SDS011;39307;52.870;13.660;2024-01-25T12:19:00;10.77;;;3.67;;
53411;SDS011;39307;52.870;13.660;2024-01-25T12:21:28;10.68;;;3.60;;
53411;SDS011;39307;52.870;13.660;2024-01-25T12:24:00;12.35;;;3.83;;
53411;SDS011;39307;52.870;13.660;2024-01-25T12:26:27;12.55;;;3.75;;
53411;SDS011;39307;52.870;13.660;2024-01-25T12:28:59;11.88;;;3.92;;
53411;SDS011;39307;52.870;13.660;2024-01-25T12:31:26;13.68;;;4.03;;
53411;SDS011;39307;52.870;13.660;2024-01-25T12:33:53;12.20;;;3.90;;
53411;SDS011;39307;52.870;13.660;2024-01-25T12:36:20;10.85;;;3.80;;
53411;SDS011;39307;52.870;13.660;2024-01-25T12:38:47;12.43;;;3.97;;
53411;SDS011;39307;52.870;13.660;2024-01-25T12:41:14;11.68;;;3.63;;
53411;SDS011;39307;52.870;13.660;2024-01-25T12:43:40;12.50;;;3.95;;
53411;SDS011;39307;52.870;13.660;2024-01-25T12:46:07;10.88;;;3.60;;
53411;SDS011;39307;52.870;13.660;2024-01-25T12:48:34;13.02;;;3.80;;
53411;SDS011;39307;52.870;13.660;2024-01-25T12:51:01;10.50;;;3.67;;
53411;SDS011;39307;52.870;13.660;2024-01-25T12:53:28;9.90;;;3.33;;
53411;SDS011;39307;52.870;13.660;2024-01-25T12:55:55;10.95;;;3.55;;
53411;SDS011;39307;52.870;13.660;2024-01-25T12:58:21;11.98;;;3.42;;
53411;SDS011;39307;52.870;13.660;2024-01-25T13:00:48;12.18;;;4.05;;
53411;SDS011;39307;52.870;13.660;2024-01-25T13:03:15;11.07;;;3.60;;
53411;SDS011;39307;52.870;13.660;2024-01-25T13:05:42;11.13;;;3.92;;
53411;SDS011;39307;52.870;13.660;2024-01-25T13:08:09;11.20;;;3.58;;
53411;SDS011;39307;52.870;13.660;2024-01-25T13:10:35;11.93;;;3.30;;
53411;SDS011;39307;52.870;13.660;2024-01-25T13:13:02;11.60;;;3.38;;
53411;SDS011;39307;52.870;13.660;2024-01-25T13:15:29;9.88;;;3.13;;
53411;SDS011;39307;52.870;13.660;2024-01-25T13:17:57;11.07;;;3.63;;
53411;SDS011;39307;52.870;13.660;2024-01-25T13:20:24;9.82;;;3.40;;
53411;SDS011;39307;52.870;13.660;2024-01-25T13:22:51;11.50;;;3.50;;
53411;SDS011;39307;52.870;13.660;2024-01-25T13:25:17;11.45;;;3.50;;
53411;SDS011;39307;52.870;13.660;2024-01-25T13:27:45;10.40;;;3.65;;
53411;SDS011;39307;52.870;13.660;2024-01-25T13:30:12;10.13;;;3.40;;
53411;SDS011;39307;52.870;13.660;2024-01-25T13:32:39;10.63;;;3.60;;
53411;SDS011;39307;52.870;13.660;2024-01-25T13:35:06;11.93;;;3.80;;
53411;SDS011;39307;52.870;13.660;2024-01-25T13:37:33;9.68;;;3.20;;
53411;SDS011;39307;52.870;13.660;2024-01-25T13:40:00;11.07;;;3.70;;
53411;SDS011;39307;52.870;13.660;2024-01-25T13:42:27;11.40;;;3.53;;
53411;SDS011;39307;52.870;13.660;2024-01-25T13:44:54;13.17;;;3.90;;
53411;SDS011;39307;52.870;13.660;2024-01-25T13:47:21;12.02;;;3.65;;
53411;SDS011;39307;52.870;13.660;2024-01-25T13:49:48;11.52;;;3.47;;
53411;SDS011;39307;52.870;13.660;2024-01-25T13:52:18;12.63;;;4.03;;
53411;SDS011;39307;52.870;13.660;2024-01-25T13:54:46;10.83;;;3.50;;
53411;SDS011;39307;52.870;13.660;2024-01-25T13:57:13;11.05;;;3.53;;
53411;SDS011;39307;52.870;13.660;2024-01-25T13:59:40;11.90;;;3.88;;
53411;SDS011;39307;52.870;13.660;2024-01-25T14:02:07;12.33;;;3.63;;
53411;SDS011;39307;52.870;13.660;2024-01-25T14:04:34;11.68;;;3.63;;
53411;SDS011;39307;52.870;13.660;2024-01-25T14:07:01;11.50;;;3.35;;
53411;SDS011;39307;52.870;13.660;2024-01-25T14:09:28;10.10;;;3.40;;
53411;SDS011;39307;52.870;13.660;2024-01-25T14:11:55;12.13;;;3.85;;
53411;SDS011;39307;52.870;13.660;2024-01-25T14:14:22;10.95;;;3.60;;
53411;SDS011;39307;52.870;13.660;2024-01-25T14:16:49;9.73;;;3.13;;
53411;SDS011;39307;52.870;13.660;2024-01-25T14:19:16;12.17;;;3.50;;
53411;SDS011;39307;52.870;13.660;2024-01-25T14:21:43;9.00;;;3.20;;
53411;SDS011;39307;52.870;13.660;2024-01-25T14:24:10;11.10;;;3.58;;